sensor_id;sensor_type;location;lat;lon;timestamp;P1;durP1;ratioP1;P2;durP2;ratioP2
55815;SDS011;41744;52.404;16.942;2023-01-16T00:00:09;4.20;;;1.30;;
55815;SDS011;41744;52.404;16.942;2023-01-16T00:02:35;3.30;;;1.20;;
55815;SDS011;41744;52.404;16.942;2023-01-16T00:05:01;7.43;;;1.20;;
55815;SDS011;41744;52.404;16.942;2023-01-16T00:07:27;4.67;;;1.13;;
55815;SDS011;41744;52.404;16.942;2023-01-16T00:09:53;1.50;;;1.10;;
55815;SDS011;41744;52.404;16.942;2023-01-16T00:12:19;1.87;;;1.03;;
55815;SDS011;41744;52.404;16.942;2023-01-16T00:14:45;5.93;;;1.20;;
55815;SDS011;41744;52.404;16.942;2023-01-16T00:17:11;2.30;;;1.03;;
55815;SDS011;41744;52.404;16.942;2023-01-16T00:19:37;3.67;;;1.10;;
55815;SDS011;41744;52.404;16.942;2023-01-16T00:22:03;4.37;;;1.20;;
55815;SDS011;41744;52.404;16.942;2023-01-16T00:24:29;2.17;;;0.83;;
55815;SDS011;41744;52.404;16.942;2023-01-16T00:26:55;2.63;;;1.00;;
55815;SDS011;41744;52.404;16.942;2023-01-16T00:29:21;2.80;;;1.20;;
55815;SDS011;41744;52.404;16.942;2023-01-16T00:31:47;3.50;;;1.20;;
55815;SDS011;41744;52.404;16.942;2023-01-16T00:34:14;4.47;;;1.30;;
55815;SDS011;41744;52.404;16.942;2023-01-16T00:36:40;4.27;;;1.00;;
55815;SDS011;41744;52.404;16.942;2023-01-16T00:39:06;3.17;;;1.20;;
55815;SDS011;41744;52.404;16.942;2023-01-16T00:41:32;2.23;;;1.10;;
55815;SDS011;41744;52.404;16.942;2023-01-16T00:43:58;2.53;;;1.20;;
55815;SDS011;41744;52.404;16.942;2023-01-16T00:46:25;2.30;;;1.00;;
55815;SDS011;41744;52.404;16.942;2023-01-16T00:48:51;1.70;;;0.90;;
55815;SDS011;41744;52.404;16.942;2023-01-16T00:51:17;2.03;;;1.10;;
55815;SDS011;41744;52.404;16.942;2023-01-16T00:53:43;3.27;;;1.33;;
55815;SDS011;41744;52.404;16.942;2023-01-16T00:56:09;2.50;;;1.10;;
55815;SDS011;41744;52.404;16.942;2023-01-16T00:58:35;3.43;;;1.20;;
55815;SDS011;41744;52.404;16.942;2023-01-16T01:01:01;2.83;;;1.03;;
55815;SDS011;41744;52.404;16.942;2023-01-16T01:03:31;3.30;;;1.30;;
55815;SDS011;41744;52.404;16.942;2023-01-16T01:06:04;2.70;;;1.20;;
55815;SDS011;41744;52.404;16.942;2023-01-16T01:08:30;1.90;;;1.20;;
55815;SDS011;41744;52.404;16.942;2023-01-16T01:10:56;3.13;;;1.00;;
55815;SDS011;41744;52.404;16.942;2023-01-16T01:13:22;3.57;;;1.20;;
55815;SDS011;41744;52.404;16.942;2023-01-16T01:15:48;5.10;;;1.37;;
55815;SDS011;41744;52.404;16.942;2023-01-16T01:18:14;3.40;;;1.07;;
55815;SDS011;41744;52.404;16.942;2023-01-16T01:20:40;6.00;;;1.40;;
55815;SDS011;41744;52.404;16.942;2023-01-16T01:23:06;4.13;;;1.33;;
55815;SDS011;41744;52.404;16.942;2023-01-16T01:28:24;1.70;;;1.20;;
55815;SDS011;41744;52.404;16.942;2023-01-16T01:30:50;2.10;;;1.20;;
55815;SDS011;41744;52.404;16.942;2023-01-16T01:33:16;1.93;;;0.93;;
55815;SDS011;41744;52.404;16.942;2023-01-16T01:35:42;2.13;;;0.90;;
55815;SDS011;41744;52.404;16.942;2023-01-16T01:38:08;4.10;;;1.30;;
55815;SDS011;41744;52.404;16.942;2023-01-16T01:40:34;5.67;;;1.30;;
55815;SDS011;41744;52.404;16.942;2023-01-16T01:43:00;2.10;;;1.00;;
55815;SDS011;41744;52.404;16.942;2023-01-16T01:45:27;2.30;;;1.00;;
55815;SDS011;41744;52.404;16.942;2023-01-16T01:47:55;2.40;;;1.10;;
55815;SDS011;41744;52.404;16.942;2023-01-16T01:53:35;3.53;;;1.13;;
55815;SDS011;41744;52.404;16.942;2023-01-16T01:56:02;7.63;;;2.23;;
55815;SDS011;41744;52.404;16.942;2023-01-16T01:58:31;12.80;;;4.50;;
55815;SDS011;41744;52.404;16.942;2023-01-16T02:00:58;2.00;;;1.30;;
55815;SDS011;41744;52.404;16.942;2023-01-16T02:03:29;1.73;;;1.03;;
55815;SDS011;41744;52.404;16.942;2023-01-16T02:05:57;4.67;;;1.10;;
55815;SDS011;41744;52.404;16.942;2023-01-16T02:08:25;2.97;;;1.23;;
55815;SDS011;41744;52.404;16.942;2023-01-16T02:10:56;2.73;;;0.70;;
55815;SDS011;41744;52.404;16.942;2023-01-16T02:13:24;4.23;;;1.30;;
55815;SDS011;41744;52.404;16.942;2023-01-16T02:15:50;2.00;;;1.20;;
55815;SDS011;41744;52.404;16.942;2023-01-16T02:18:35;2.57;;;1.20;;
55815;SDS011;41744;52.404;16.942;2023-01-16T02:21:35;2.43;;;1.17;;
55815;SDS011;41744;52.404;16.942;2023-01-16T02:27:23;1.73;;;0.90;;
55815;SDS011;41744;52.404;16.942;2023-01-16T02:37:27;2.70;;;0.97;;
55815;SDS011;41744;52.404;16.942;2023-01-16T02:42:44;1.67;;;0.90;;
55815;SDS011;41744;52.404;16.942;2023-01-16T02:47:57;4.43;;;1.23;;
55815;SDS011;41744;52.404;16.942;2023-01-16T02:53:22;2.10;;;1.10;;
55815;SDS011;41744;52.404;16.942;2023-01-16T02:56:11;2.23;;;1.10;;
55815;SDS011;41744;52.404;16.942;2023-01-16T02:58:46;2.00;;;0.90;;
55815;SDS011;41744;52.404;16.942;2023-01-16T03:01:13;2.93;;;1.10;;
55815;SDS011;41744;52.404;16.942;2023-01-16T03:06:13;4.73;;;1.03;;
55815;SDS011;41744;52.404;16.942;2023-01-16T03:16:14;4.97;;;0.83;;
55815;SDS011;41744;52.404;16.942;2023-01-16T03:19:21;2.87;;;1.03;;
55815;SDS011;41744;52.404;16.942;2023-01-16T03:29:09;1.43;;;0.90;;
55815;SDS011;41744;52.404;16.942;2023-01-16T03:34:13;1.60;;;0.80;;
55815;SDS011;41744;52.404;16.942;2023-01-16T03:39:28;2.50;;;1.00;;
55815;SDS011;41744;52.404;16.942;2023-01-16T03:41:58;3.40;;;1.20;;
55815;SDS011;41744;52.404;16.942;2023-01-16T03:44:27;3.13;;;1.13;;
55815;SDS011;41744;52.404;16.942;2023-01-16T03:46:54;2.73;;;1.17;;
55815;SDS011;41744;52.404;16.942;2023-01-16T03:49:24;2.53;;;1.23;;
55815;SDS011;41744;52.404;16.942;2023-01-16T03:51:52;4.40;;;1.27;;
55815;SDS011;41744;52.404;16.942;2023-01-16T03:54:31;2.57;;;1.17;;
55815;SDS011;41744;52.404;16.942;2023-01-16T03:57:09;1.67;;;1.20;;
55815;SDS011;41744;52.404;16.942;2023-01-16T03:59:36;2.77;;;1.57;;
55815;SDS011;41744;52.404;16.942;2023-01-16T04:02:04;5.03;;;1.60;;
55815;SDS011;41744;52.404;16.942;2023-01-16T04:04:37;4.37;;;1.47;;
55815;SDS011;41744;52.404;16.942;2023-01-16T04:09:45;4.00;;;1.77;;
55815;SDS011;41744;52.404;16.942;2023-01-16T04:12:12;5.33;;;1.40;;
55815;SDS011;41744;52.404;16.942;2023-01-16T04:14:43;3.30;;;1.60;;
55815;SDS011;41744;52.404;16.942;2023-01-16T04:17:10;2.23;;;1.30;;
55815;SDS011;41744;52.404;16.942;2023-01-16T04:19:36;4.77;;;1.63;;
55815;SDS011;41744;52.404;16.942;2023-01-16T04:22:06;4.07;;;1.40;;
55815;SDS011;41744;52.404;16.942;2023-01-16T04:24:33;4.00;;;1.57;;
55815;SDS011;41744;52.404;16.942;2023-01-16T04:27:00;3.13;;;1.40;;
55815;SDS011;41744;52.404;16.942;2023-01-16T04:29:29;4.43;;;1.53;;
55815;SDS011;41744;52.404;16.942;2023-01-16T04:31:58;3.40;;;1.57;;
55815;SDS011;41744;52.404;16.942;2023-01-16T04:34:24;3.83;;;1.53;;
55815;SDS011;41744;52.404;16.942;2023-01-16T04:36:52;4.93;;;1.60;;
55815;SDS011;41744;52.404;16.942;2023-01-16T04:39:19;3.80;;;1.77;;
55815;SDS011;41744;52.404;16.942;2023-01-16T04:41:45;3.57;;;1.47;;
55815;SDS011;41744;52.404;16.942;2023-01-16T04:44:15;8.03;;;1.77;;
55815;SDS011;41744;52.404;16.942;2023-01-16T04:46:41;3.97;;;1.70;;
55815;SDS011;41744;52.404;16.942;2023-01-16T04:49:10;3.80;;;1.70;;
55815;SDS011;41744;52.404;16.942;2023-01-16T04:51:36;4.97;;;1.70;;
55815;SDS011;41744;52.404;16.942;2023-01-16T04:54:04;5.73;;;1.50;;
55815;SDS011;41744;52.404;16.942;2023-01-16T04:56:30;8.13;;;1.80;;
55815;SDS011;41744;52.404;16.942;2023-01-16T04:58:56;8.93;;;1.70;;
55815;SDS011;41744;52.404;16.942;2023-01-16T05:01:22;3.07;;;1.80;;
55815;SDS011;41744;52.404;16.942;2023-01-16T05:03:49;4.47;;;1.70;;
55815;SDS011;41744;52.404;16.942;2023-01-16T05:06:15;5.70;;;1.90;;
55815;SDS011;41744;52.404;16.942;2023-01-16T05:08:41;4.53;;;1.50;;
55815;SDS011;41744;52.404;16.942;2023-01-16T05:11:07;4.60;;;1.87;;
55815;SDS011;41744;52.404;16.942;2023-01-16T05:13:33;4.17;;;1.80;;
55815;SDS011;41744;52.404;16.942;2023-01-16T05:15:59;3.53;;;1.70;;
55815;SDS011;41744;52.404;16.942;2023-01-16T05:18:26;5.67;;;1.43;;
55815;SDS011;41744;52.404;16.942;2023-01-16T05:20:52;5.63;;;1.97;;
55815;SDS011;41744;52.404;16.942;2023-01-16T05:23:18;3.77;;;1.67;;
55815;SDS011;41744;52.404;16.942;2023-01-16T05:25:44;4.33;;;1.80;;
55815;SDS011;41744;52.404;16.942;2023-01-16T05:28:10;8.00;;;1.97;;
55815;SDS011;41744;52.404;16.942;2023-01-16T05:30:36;4.07;;;1.80;;
55815;SDS011;41744;52.404;16.942;2023-01-16T05:33:02;7.33;;;1.50;;
55815;SDS011;41744;52.404;16.942;2023-01-16T05:35:29;5.27;;;1.70;;
55815;SDS011;41744;52.404;16.942;2023-01-16T05:37:55;5.97;;;1.80;;
55815;SDS011;41744;52.404;16.942;2023-01-16T05:40:21;7.83;;;2.00;;
55815;SDS011;41744;52.404;16.942;2023-01-16T05:42:47;4.20;;;1.53;;
55815;SDS011;41744;52.404;16.942;2023-01-16T05:45:14;6.57;;;1.60;;
55815;SDS011;41744;52.404;16.942;2023-01-16T05:47:40;3.70;;;1.43;;
55815;SDS011;41744;52.404;16.942;2023-01-16T05:50:06;5.43;;;1.73;;
55815;SDS011;41744;52.404;16.942;2023-01-16T05:52:32;3.23;;;1.60;;
55815;SDS011;41744;52.404;16.942;2023-01-16T05:54:58;3.73;;;1.60;;
55815;SDS011;41744;52.404;16.942;2023-01-16T05:57:24;3.20;;;1.70;;
55815;SDS011;41744;52.404;16.942;2023-01-16T05:59:50;3.53;;;1.70;;
55815;SDS011;41744;52.404;16.942;2023-01-16T06:02:19;4.73;;;2.00;;
55815;SDS011;41744;52.404;16.942;2023-01-16T06:04:46;6.07;;;2.10;;
55815;SDS011;41744;52.404;16.942;2023-01-16T06:07:12;6.07;;;2.57;;
55815;SDS011;41744;52.404;16.942;2023-01-16T06:09:38;6.83;;;2.30;;
55815;SDS011;41744;52.404;16.942;2023-01-16T06:12:04;5.53;;;1.90;;
55815;SDS011;41744;52.404;16.942;2023-01-16T06:14:32;5.67;;;2.13;;
55815;SDS011;41744;52.404;16.942;2023-01-16T06:16:58;6.20;;;2.03;;
55815;SDS011;41744;52.404;16.942;2023-01-16T06:19:24;6.50;;;2.10;;
55815;SDS011;41744;52.404;16.942;2023-01-16T06:21:50;5.10;;;2.37;;
55815;SDS011;41744;52.404;16.942;2023-01-16T06:24:16;6.57;;;2.20;;
55815;SDS011;41744;52.404;16.942;2023-01-16T06:26:42;8.77;;;2.87;;
55815;SDS011;41744;52.404;16.942;2023-01-16T06:29:09;8.67;;;2.67;;
55815;SDS011;41744;52.404;16.942;2023-01-16T06:31:37;5.90;;;2.47;;
55815;SDS011;41744;52.404;16.942;2023-01-16T06:34:03;6.27;;;2.27;;
55815;SDS011;41744;52.404;16.942;2023-01-16T06:36:29;8.10;;;2.43;;
55815;SDS011;41744;52.404;16.942;2023-01-16T06:38:55;7.00;;;2.30;;
55815;SDS011;41744;52.404;16.942;2023-01-16T06:41:21;9.67;;;2.63;;
55815;SDS011;41744;52.404;16.942;2023-01-16T06:43:47;9.40;;;2.87;;
55815;SDS011;41744;52.404;16.942;2023-01-16T06:46:13;6.80;;;2.70;;
55815;SDS011;41744;52.404;16.942;2023-01-16T06:48:39;7.17;;;2.50;;
55815;SDS011;41744;52.404;16.942;2023-01-16T06:51:07;8.13;;;2.70;;
55815;SDS011;41744;52.404;16.942;2023-01-16T06:53:33;8.20;;;2.57;;
55815;SDS011;41744;52.404;16.942;2023-01-16T06:55:59;10.73;;;2.40;;
55815;SDS011;41744;52.404;16.942;2023-01-16T06:58:25;7.33;;;2.40;;
55815;SDS011;41744;52.404;16.942;2023-01-16T07:00:51;8.20;;;2.03;;
55815;SDS011;41744;52.404;16.942;2023-01-16T07:03:17;6.67;;;2.20;;
55815;SDS011;41744;52.404;16.942;2023-01-16T07:05:44;6.33;;;2.37;;
55815;SDS011;41744;52.404;16.942;2023-01-16T07:08:11;7.47;;;2.23;;
55815;SDS011;41744;52.404;16.942;2023-01-16T07:10:37;7.23;;;2.93;;
55815;SDS011;41744;52.404;16.942;2023-01-16T07:13:03;6.77;;;2.43;;
55815;SDS011;41744;52.404;16.942;2023-01-16T07:15:29;8.87;;;2.93;;
55815;SDS011;41744;52.404;16.942;2023-01-16T07:18:14;9.40;;;3.50;;
55815;SDS011;41744;52.404;16.942;2023-01-16T07:21:03;6.90;;;2.87;;
55815;SDS011;41744;52.404;16.942;2023-01-16T07:23:53;6.17;;;2.70;;
55815;SDS011;41744;52.404;16.942;2023-01-16T07:26:20;8.07;;;3.30;;
55815;SDS011;41744;52.404;16.942;2023-01-16T07:28:47;8.10;;;3.07;;
55815;SDS011;41744;52.404;16.942;2023-01-16T07:31:15;23.43;;;8.53;;
55815;SDS011;41744;52.404;16.942;2023-01-16T07:33:41;9.03;;;3.87;;
55815;SDS011;41744;52.404;16.942;2023-01-16T07:36:07;5.83;;;2.70;;
55815;SDS011;41744;52.404;16.942;2023-01-16T07:38:33;7.90;;;3.40;;
55815;SDS011;41744;52.404;16.942;2023-01-16T07:40:59;8.43;;;3.17;;
55815;SDS011;41744;52.404;16.942;2023-01-16T07:43:25;10.07;;;3.20;;
55815;SDS011;41744;52.404;16.942;2023-01-16T07:45:51;5.87;;;2.83;;
55815;SDS011;41744;52.404;16.942;2023-01-16T07:48:18;11.33;;;2.97;;
55815;SDS011;41744;52.404;16.942;2023-01-16T07:50:48;10.97;;;3.53;;
55815;SDS011;41744;52.404;16.942;2023-01-16T07:53:14;8.33;;;3.33;;
55815;SDS011;41744;52.404;16.942;2023-01-16T07:55:41;7.27;;;3.07;;
55815;SDS011;41744;52.404;16.942;2023-01-16T07:58:07;6.87;;;3.00;;
55815;SDS011;41744;52.404;16.942;2023-01-16T08:00:33;10.77;;;2.83;;
55815;SDS011;41744;52.404;16.942;2023-01-16T08:02:59;5.33;;;2.77;;
55815;SDS011;41744;52.404;16.942;2023-01-16T08:05:25;7.17;;;3.10;;
55815;SDS011;41744;52.404;16.942;2023-01-16T08:07:52;8.00;;;3.23;;
55815;SDS011;41744;52.404;16.942;2023-01-16T08:10:18;7.20;;;3.00;;
55815;SDS011;41744;52.404;16.942;2023-01-16T08:12:44;7.33;;;3.00;;
55815;SDS011;41744;52.404;16.942;2023-01-16T08:15:13;10.10;;;2.90;;
55815;SDS011;41744;52.404;16.942;2023-01-16T08:17:39;7.03;;;2.23;;
55815;SDS011;41744;52.404;16.942;2023-01-16T08:20:09;8.20;;;2.90;;
55815;SDS011;41744;52.404;16.942;2023-01-16T08:22:40;8.73;;;2.77;;
55815;SDS011;41744;52.404;16.942;2023-01-16T08:25:07;5.00;;;2.57;;
55815;SDS011;41744;52.404;16.942;2023-01-16T08:27:33;6.37;;;2.60;;
55815;SDS011;41744;52.404;16.942;2023-01-16T08:29:59;7.10;;;2.70;;
55815;SDS011;41744;52.404;16.942;2023-01-16T08:32:25;6.23;;;2.87;;
55815;SDS011;41744;52.404;16.942;2023-01-16T08:34:51;8.23;;;2.90;;
55815;SDS011;41744;52.404;16.942;2023-01-16T08:37:17;5.73;;;2.53;;
55815;SDS011;41744;52.404;16.942;2023-01-16T08:39:43;5.47;;;2.50;;
55815;SDS011;41744;52.404;16.942;2023-01-16T08:42:09;6.93;;;2.80;;
55815;SDS011;41744;52.404;16.942;2023-01-16T08:44:54;8.27;;;3.00;;
55815;SDS011;41744;52.404;16.942;2023-01-16T08:47:39;6.63;;;3.00;;
55815;SDS011;41744;52.404;16.942;2023-01-16T08:50:23;5.43;;;2.67;;
55815;SDS011;41744;52.404;16.942;2023-01-16T08:53:08;7.57;;;2.70;;
55815;SDS011;41744;52.404;16.942;2023-01-16T08:55:34;6.87;;;2.97;;
55815;SDS011;41744;52.404;16.942;2023-01-16T08:58:00;9.77;;;2.77;;
55815;SDS011;41744;52.404;16.942;2023-01-16T09:00:27;8.93;;;3.30;;
55815;SDS011;41744;52.404;16.942;2023-01-16T09:02:53;11.73;;;3.07;;
55815;SDS011;41744;52.404;16.942;2023-01-16T09:05:21;6.03;;;2.67;;
55815;SDS011;41744;52.404;16.942;2023-01-16T09:07:47;7.37;;;2.80;;
55815;SDS011;41744;52.404;16.942;2023-01-16T09:10:13;8.37;;;2.80;;
55815;SDS011;41744;52.404;16.942;2023-01-16T09:12:39;7.10;;;2.37;;
55815;SDS011;41744;52.404;16.942;2023-01-16T09:15:24;5.40;;;2.03;;
55815;SDS011;41744;52.404;16.942;2023-01-16T09:17:51;4.43;;;2.10;;
55815;SDS011;41744;52.404;16.942;2023-01-16T09:20:17;5.13;;;2.17;;
55815;SDS011;41744;52.404;16.942;2023-01-16T09:22:43;4.63;;;2.30;;
55815;SDS011;41744;52.404;16.942;2023-01-16T09:25:09;5.17;;;2.27;;
55815;SDS011;41744;52.404;16.942;2023-01-16T09:27:35;6.00;;;2.37;;
55815;SDS011;41744;52.404;16.942;2023-01-16T09:30:01;5.83;;;2.33;;
55815;SDS011;41744;52.404;16.942;2023-01-16T09:32:28;7.87;;;2.40;;
55815;SDS011;41744;52.404;16.942;2023-01-16T09:34:54;5.30;;;2.27;;
55815;SDS011;41744;52.404;16.942;2023-01-16T09:37:20;6.10;;;2.27;;
55815;SDS011;41744;52.404;16.942;2023-01-16T09:39:47;4.27;;;2.37;;
55815;SDS011;41744;52.404;16.942;2023-01-16T09:45:02;8.33;;;2.20;;
55815;SDS011;41744;52.404;16.942;2023-01-16T09:47:30;5.47;;;2.40;;
55815;SDS011;41744;52.404;16.942;2023-01-16T09:50:13;8.40;;;2.33;;
55815;SDS011;41744;52.404;16.942;2023-01-16T09:52:41;6.90;;;2.50;;
55815;SDS011;41744;52.404;16.942;2023-01-16T09:55:33;5.97;;;2.70;;
55815;SDS011;41744;52.404;16.942;2023-01-16T09:58:21;3.83;;;1.90;;
55815;SDS011;41744;52.404;16.942;2023-01-16T10:01:13;6.40;;;2.27;;
55815;SDS011;41744;52.404;16.942;2023-01-16T10:03:39;13.43;;;5.23;;
55815;SDS011;41744;52.404;16.942;2023-01-16T10:06:14;8.77;;;2.70;;
55815;SDS011;41744;52.404;16.942;2023-01-16T10:28:54;7.43;;;2.37;;
55815;SDS011;41744;52.404;16.942;2023-01-16T10:31:29;9.60;;;3.97;;
55815;SDS011;41744;52.404;16.942;2023-01-16T10:36:42;8.27;;;2.30;;
55815;SDS011;41744;52.404;16.942;2023-01-16T10:39:09;6.17;;;2.30;;
55815;SDS011;41744;52.404;16.942;2023-01-16T10:41:40;3.47;;;1.97;;
55815;SDS011;41744;52.404;16.942;2023-01-16T10:47:13;5.57;;;2.17;;
55815;SDS011;41744;52.404;16.942;2023-01-16T10:50:02;7.20;;;1.83;;
55815;SDS011;41744;52.404;16.942;2023-01-16T10:52:28;5.80;;;2.13;;
55815;SDS011;41744;52.404;16.942;2023-01-16T10:54:55;4.43;;;1.80;;
55815;SDS011;41744;52.404;16.942;2023-01-16T10:57:21;8.20;;;2.63;;
55815;SDS011;41744;52.404;16.942;2023-01-16T10:59:51;5.90;;;2.33;;
55815;SDS011;41744;52.404;16.942;2023-01-16T11:02:22;5.13;;;2.00;;
55815;SDS011;41744;52.404;16.942;2023-01-16T11:04:50;5.63;;;1.97;;
55815;SDS011;41744;52.404;16.942;2023-01-16T11:07:19;5.97;;;2.07;;
55815;SDS011;41744;52.404;16.942;2023-01-16T11:09:45;6.07;;;2.20;;
55815;SDS011;41744;52.404;16.942;2023-01-16T11:12:15;5.50;;;2.10;;
55815;SDS011;41744;52.404;16.942;2023-01-16T11:15:01;5.33;;;1.97;;
55815;SDS011;41744;52.404;16.942;2023-01-16T11:17:51;3.80;;;1.90;;
55815;SDS011;41744;52.404;16.942;2023-01-16T11:20:36;4.40;;;1.73;;
55815;SDS011;41744;52.404;16.942;2023-01-16T11:25:32;6.57;;;2.10;;
55815;SDS011;41744;52.404;16.942;2023-01-16T11:28:00;3.70;;;1.77;;
55815;SDS011;41744;52.404;16.942;2023-01-16T11:30:28;7.13;;;1.93;;
55815;SDS011;41744;52.404;16.942;2023-01-16T11:32:55;4.87;;;1.77;;
55815;SDS011;41744;52.404;16.942;2023-01-16T11:35:24;8.03;;;2.10;;
55815;SDS011;41744;52.404;16.942;2023-01-16T11:37:51;4.87;;;1.90;;
55815;SDS011;41744;52.404;16.942;2023-01-16T11:40:19;6.90;;;2.23;;
55815;SDS011;41744;52.404;16.942;2023-01-16T11:42:56;5.30;;;1.97;;
55815;SDS011;41744;52.404;16.942;2023-01-16T11:45:45;5.47;;;2.20;;
55815;SDS011;41744;52.404;16.942;2023-01-16T11:48:33;5.77;;;2.07;;
55815;SDS011;41744;52.404;16.942;2023-01-16T11:51:00;4.23;;;1.83;;
55815;SDS011;41744;52.404;16.942;2023-01-16T11:53:33;7.07;;;2.40;;
55815;SDS011;41744;52.404;16.942;2023-01-16T12:03:49;6.10;;;1.93;;
55815;SDS011;41744;52.404;16.942;2023-01-16T12:11:47;5.97;;;2.67;;
55815;SDS011;41744;52.404;16.942;2023-01-16T12:17:31;8.57;;;2.43;;
55815;SDS011;41744;52.404;16.942;2023-01-16T12:22:45;7.57;;;2.50;;
55815;SDS011;41744;52.404;16.942;2023-01-16T12:25:23;4.67;;;2.10;;
55815;SDS011;41744;52.404;16.942;2023-01-16T12:36:23;4.87;;;1.90;;
55815;SDS011;41744;52.404;16.942;2023-01-16T12:39:03;4.43;;;1.90;;
55815;SDS011;41744;52.404;16.942;2023-01-16T12:41:38;6.53;;;2.13;;
55815;SDS011;41744;52.404;16.942;2023-01-16T12:47:35;5.17;;;1.90;;
55815;SDS011;41744;52.404;16.942;2023-01-16T13:05:07;6.43;;;2.60;;
55815;SDS011;41744;52.404;16.942;2023-01-16T13:07:39;9.17;;;2.83;;
55815;SDS011;41744;52.404;16.942;2023-01-16T13:12:54;10.40;;;2.90;;
55815;SDS011;41744;52.404;16.942;2023-01-16T13:15:40;8.80;;;2.33;;
55815;SDS011;41744;52.404;16.942;2023-01-16T13:20:33;4.50;;;2.60;;
55815;SDS011;41744;52.404;16.942;2023-01-16T13:23:01;7.40;;;2.20;;
55815;SDS011;41744;52.404;16.942;2023-01-16T13:27:55;5.73;;;2.30;;
55815;SDS011;41744;52.404;16.942;2023-01-16T13:30:23;6.90;;;2.50;;
55815;SDS011;41744;52.404;16.942;2023-01-16T13:32:53;5.27;;;2.43;;
55815;SDS011;41744;52.404;16.942;2023-01-16T13:40:32;6.33;;;2.60;;
55815;SDS011;41744;52.404;16.942;2023-01-16T13:43:04;8.60;;;3.10;;
55815;SDS011;41744;52.404;16.942;2023-01-16T13:45:50;6.27;;;2.67;;
55815;SDS011;41744;52.404;16.942;2023-01-16T13:48:19;8.23;;;2.60;;
55815;SDS011;41744;52.404;16.942;2023-01-16T13:50:48;6.77;;;2.60;;
55815;SDS011;41744;52.404;16.942;2023-01-16T13:53:15;9.73;;;3.03;;
55815;SDS011;41744;52.404;16.942;2023-01-16T13:55:47;8.23;;;3.00;;
55815;SDS011;41744;52.404;16.942;2023-01-16T13:58:23;8.13;;;2.87;;
55815;SDS011;41744;52.404;16.942;2023-01-16T14:01:01;8.43;;;3.17;;
55815;SDS011;41744;52.404;16.942;2023-01-16T14:03:29;7.70;;;2.97;;
55815;SDS011;41744;52.404;16.942;2023-01-16T14:17:07;12.07;;;3.60;;
55815;SDS011;41744;52.404;16.942;2023-01-16T14:19:53;9.13;;;3.10;;
55815;SDS011;41744;52.404;16.942;2023-01-16T14:22:20;8.57;;;2.97;;
55815;SDS011;41744;52.404;16.942;2023-01-16T14:24:48;6.20;;;2.87;;
55815;SDS011;41744;52.404;16.942;2023-01-16T14:27:19;14.20;;;3.27;;
55815;SDS011;41744;52.404;16.942;2023-01-16T14:29:56;8.33;;;2.90;;
55815;SDS011;41744;52.404;16.942;2023-01-16T14:32:24;10.83;;;3.50;;
55815;SDS011;41744;52.404;16.942;2023-01-16T14:34:52;9.23;;;3.20;;
55815;SDS011;41744;52.404;16.942;2023-01-16T14:37:21;9.17;;;3.30;;
55815;SDS011;41744;52.404;16.942;2023-01-16T14:39:50;10.90;;;3.27;;
55815;SDS011;41744;52.404;16.942;2023-01-16T14:42:30;11.40;;;3.10;;
55815;SDS011;41744;52.404;16.942;2023-01-16T14:48:13;16.17;;;4.13;;
55815;SDS011;41744;52.404;16.942;2023-01-16T14:51:10;10.67;;;4.00;;
55815;SDS011;41744;52.404;16.942;2023-01-16T14:56:44;9.87;;;4.03;;
55815;SDS011;41744;52.404;16.942;2023-01-16T14:59:32;12.23;;;3.77;;
55815;SDS011;41744;52.404;16.942;2023-01-16T15:02:11;10.20;;;4.30;;
55815;SDS011;41744;52.404;16.942;2023-01-16T15:07:19;12.80;;;4.03;;
55815;SDS011;41744;52.404;16.942;2023-01-16T15:09:48;12.20;;;4.37;;
55815;SDS011;41744;52.404;16.942;2023-01-16T15:12:16;12.97;;;4.70;;
55815;SDS011;41744;52.404;16.942;2023-01-16T15:14:58;24.93;;;7.90;;
55815;SDS011;41744;52.404;16.942;2023-01-16T15:17:37;13.07;;;4.83;;
55815;SDS011;41744;52.404;16.942;2023-01-16T15:26:00;14.83;;;4.53;;
55815;SDS011;41744;52.404;16.942;2023-01-16T15:31:07;12.23;;;4.53;;
55815;SDS011;41744;52.404;16.942;2023-01-16T15:33:35;14.27;;;4.90;;
55815;SDS011;41744;52.404;16.942;2023-01-16T15:39:01;18.30;;;5.23;;
55815;SDS011;41744;52.404;16.942;2023-01-16T15:41:29;20.97;;;5.13;;
55815;SDS011;41744;52.404;16.942;2023-01-16T15:44:17;14.17;;;4.90;;
55815;SDS011;41744;52.404;16.942;2023-01-16T15:47:22;15.23;;;5.33;;
55815;SDS011;41744;52.404;16.942;2023-01-16T15:52:21;16.03;;;5.83;;
55815;SDS011;41744;52.404;16.942;2023-01-16T15:54:47;17.10;;;6.10;;
55815;SDS011;41744;52.404;16.942;2023-01-16T15:57:14;17.13;;;5.90;;
55815;SDS011;41744;52.404;16.942;2023-01-16T15:59:49;14.80;;;6.17;;
55815;SDS011;41744;52.404;16.942;2023-01-16T16:02:22;18.73;;;6.10;;
55815;SDS011;41744;52.404;16.942;2023-01-16T16:04:51;13.97;;;5.23;;
55815;SDS011;41744;52.404;16.942;2023-01-16T16:07:18;18.53;;;4.90;;
55815;SDS011;41744;52.404;16.942;2023-01-16T16:09:45;12.77;;;5.27;;
55815;SDS011;41744;52.404;16.942;2023-01-16T16:12:12;16.43;;;5.43;;
55815;SDS011;41744;52.404;16.942;2023-01-16T16:14:38;16.50;;;5.47;;
55815;SDS011;41744;52.404;16.942;2023-01-16T16:17:24;13.07;;;4.80;;
55815;SDS011;41744;52.404;16.942;2023-01-16T16:23:04;16.43;;;6.10;;
55815;SDS011;41744;52.404;16.942;2023-01-16T16:28:03;16.13;;;5.90;;
55815;SDS011;41744;52.404;16.942;2023-01-16T16:30:30;21.77;;;6.73;;
55815;SDS011;41744;52.404;16.942;2023-01-16T16:32:56;17.50;;;6.77;;
55815;SDS011;41744;52.404;16.942;2023-01-16T16:35:25;18.17;;;7.00;;
55815;SDS011;41744;52.404;16.942;2023-01-16T16:37:55;17.10;;;7.23;;
55815;SDS011;41744;52.404;16.942;2023-01-16T16:40:22;22.60;;;8.40;;
55815;SDS011;41744;52.404;16.942;2023-01-16T16:42:52;24.03;;;7.97;;
55815;SDS011;41744;52.404;16.942;2023-01-16T16:45:22;25.80;;;9.37;;
55815;SDS011;41744;52.404;16.942;2023-01-16T16:48:13;24.60;;;8.60;;
55815;SDS011;41744;52.404;16.942;2023-01-16T16:50:35;23.37;;;8.97;;
55815;SDS011;41744;52.404;16.942;2023-01-16T16:55:41;21.27;;;7.97;;
55815;SDS011;41744;52.404;16.942;2023-01-16T16:58:13;20.90;;;7.97;;
55815;SDS011;41744;52.404;16.942;2023-01-16T17:00:40;21.63;;;7.80;;
55815;SDS011;41744;52.404;16.942;2023-01-16T17:03:15;22.57;;;8.07;;
55815;SDS011;41744;52.404;16.942;2023-01-16T17:05:42;24.60;;;8.30;;
55815;SDS011;41744;52.404;16.942;2023-01-16T17:08:13;22.30;;;7.70;;
55815;SDS011;41744;52.404;16.942;2023-01-16T17:10:40;20.93;;;8.27;;
55815;SDS011;41744;52.404;16.942;2023-01-16T17:13:07;27.83;;;8.67;;
55815;SDS011;41744;52.404;16.942;2023-01-16T17:15:33;20.20;;;7.33;;
55815;SDS011;41744;52.404;16.942;2023-01-16T17:17:59;20.83;;;7.43;;
55815;SDS011;41744;52.404;16.942;2023-01-16T17:20:25;19.40;;;7.03;;
55815;SDS011;41744;52.404;16.942;2023-01-16T17:22:51;25.17;;;7.77;;
55815;SDS011;41744;52.404;16.942;2023-01-16T17:25:18;19.03;;;7.30;;
55815;SDS011;41744;52.404;16.942;2023-01-16T17:27:45;21.00;;;7.60;;
55815;SDS011;41744;52.404;16.942;2023-01-16T17:30:12;20.30;;;6.83;;
55815;SDS011;41744;52.404;16.942;2023-01-16T17:32:38;22.30;;;7.23;;
55815;SDS011;41744;52.404;16.942;2023-01-16T17:35:05;23.93;;;7.10;;
55815;SDS011;41744;52.404;16.942;2023-01-16T17:37:31;22.30;;;7.80;;
55815;SDS011;41744;52.404;16.942;2023-01-16T17:39:57;23.77;;;7.47;;
55815;SDS011;41744;52.404;16.942;2023-01-16T17:42:23;16.67;;;7.80;;
55815;SDS011;41744;52.404;16.942;2023-01-16T17:45:14;21.37;;;7.47;;
55815;SDS011;41744;52.404;16.942;2023-01-16T17:48:20;23.20;;;7.20;;